CheckWX is a tool to help pilots better visualize weather data.  It is not intended as a substitute for an official pre-flight weather briefing.

07:34:32 UTC

KLWC METAR
Lawrence Municipal Airport
Lawrence, Kansas, USA
Current

43 mins ago

KLWC 290652Z AUTO 30004KT 9SM CLR 15/14 A3009 RMK AO2 SLP184 T01500139
Observed
May-29 @ 06:52 UTC
Wind
  • 300° at 4 KTS
Visibility
Flight Rules
VFR
Cloud Levels
  • Clear skies
Temperature
15°C / 59°F
Dewpoint
14°C / 57°F
Humidity
94%
Altimeter
30.09" Hg
Pressure
1018.92 hPa
Previous

2 hours ago

KLWC 290552Z AUTO 31005KT 10SM CLR 15/14 A3007 RMK AO2 SLP179 T01500139 10228 20150 402440150 53014
Observed
May-29 @ 05:52 UTC
Wind
  • 310° at 5 KTS
Visibility
Flight Rules
VFR
Cloud Levels
  • Clear skies
Dewpoint
14°C / 57°F
Humidity
94%
Altimeter
30.07" Hg
Pressure
1018.32 hPa
Previous

3 hours ago

KLWC 290452Z AUTO 31005KT 10SM CLR 16/14 A3006 RMK AO2 SLP173 T01560144
Observed
May-29 @ 04:52 UTC
Wind
  • 310° at 5 KTS
Visibility
Flight Rules
VFR
Cloud Levels
  • Clear skies
Temperature
16°C / 61°F
Dewpoint
14°C / 57°F
Humidity
88%
Altimeter
30.06" Hg
Pressure
1017.92 hPa